createdAt,value
2023-03-14T00:01:22.121Z,98768.06
2023-03-14T00:03:49.542Z,98762.78
2023-03-14T00:06:17.619Z,98765.94
2023-03-14T00:08:46.065Z,98760.63
2023-03-14T00:11:16.914Z,98750.63
2023-03-14T00:13:44.405Z,98759.38
2023-03-14T00:16:14.487Z,98747.25
2023-03-14T00:18:42.347Z,98731.81
2023-03-14T00:21:11.274Z,98737.84
2023-03-14T00:23:40.878Z,98724.25
2023-03-14T00:26:10.125Z,98710.66
2023-03-14T00:28:38.237Z,98711.41
2023-03-14T00:31:06.908Z,98709.63
2023-03-14T00:33:36.115Z,98699.56
2023-03-14T00:36:05.917Z,98702.16
2023-03-14T00:38:34.834Z,98685.69
2023-03-14T00:41:05.180Z,98680.34
2023-03-14T00:43:32.790Z,98684.91
2023-03-14T00:46:00.275Z,98696.44
2023-03-14T00:48:28.202Z,98690.19
2023-03-14T00:50:56.918Z,98682.16
2023-03-14T00:53:24.611Z,98680.88
2023-03-14T00:55:52.261Z,98674.69
2023-03-14T00:58:20.306Z,98671.31
2023-03-14T01:00:48.057Z,98656.81
2023-03-14T01:03:16.591Z,98648.66
2023-03-14T01:05:44.400Z,98648.03
2023-03-14T01:08:13.708Z,98646.94
2023-03-14T01:10:41.964Z,98640.81
2023-03-14T01:13:10.327Z,98652.59
2023-03-14T01:15:39.115Z,98654.91
2023-03-14T01:18:06.889Z,98668.03
2023-03-14T01:20:34.345Z,98690.72
2023-03-14T01:23:01.763Z,98697.91
2023-03-14T01:25:31.092Z,98725.31
2023-03-14T01:27:58.498Z,98719.16
2023-03-14T01:30:25.998Z,98723.72
2023-03-14T01:32:53.436Z,98730.56
2023-03-14T01:35:20.895Z,98729.59
2023-03-14T01:37:48.303Z,98732.56
2023-03-14T01:40:17.367Z,98727.06
2023-03-14T01:42:57.419Z,98728.44
2023-03-14T01:46:02.227Z,98734.97
2023-03-14T01:48:34.476Z,98739.16
2023-03-14T01:51:04.354Z,98744.59
2023-03-14T01:53:32.021Z,98751.25
2023-03-14T01:55:59.657Z,98741.13
2023-03-14T01:58:32.951Z,98732.41
2023-03-14T02:01:00.823Z,98730.44
2023-03-14T02:03:30.433Z,98719.84
2023-03-14T02:06:02.191Z,98711.50
2023-03-14T02:08:29.876Z,98716.22
2023-03-14T02:10:57.418Z,98701.84
2023-03-14T02:13:24.879Z,98704.06
2023-03-14T02:15:53.604Z,98708.16
2023-03-14T02:18:21.388Z,98703.59
2023-03-14T02:20:55.197Z,98707.50
2023-03-14T02:23:31.573Z,98704.56
2023-03-14T02:26:05.343Z,98702.34
2023-03-14T02:28:34.148Z,98685.78
2023-03-14T02:31:01.998Z,98692.44
2023-03-14T02:33:29.797Z,98685.22
2023-03-14T02:36:00.077Z,98697.38
2023-03-14T02:38:33.787Z,98680.03
2023-03-14T02:41:01.687Z,98678.28
2023-03-14T02:43:29.243Z,98685.53
2023-03-14T02:45:58.271Z,98682.63
2023-03-14T02:48:28.276Z,98669.25
2023-03-14T02:50:57.308Z,98661.16
2023-03-14T02:53:28.488Z,98667.13
2023-03-14T02:55:55.893Z,98652.16
2023-03-14T02:58:23.510Z,98649.66
2023-03-14T03:00:51.062Z,98640.00
2023-03-14T03:03:20.265Z,98641.53
2023-03-14T03:05:51.379Z,98634.25
2023-03-14T03:08:19.586Z,98633.75
2023-03-14T03:10:47.209Z,98620.00
2023-03-14T03:13:14.946Z,98604.31
2023-03-14T03:15:42.383Z,98607.25
2023-03-14T03:18:09.998Z,98605.00
2023-03-14T03:20:39.514Z,98600.16
2023-03-14T03:23:07.360Z,98615.16
2023-03-14T03:25:34.834Z,98605.72
2023-03-14T03:28:08.521Z,98605.66
2023-03-14T03:30:39.679Z,98621.72
2023-03-14T03:33:07.336Z,98630.97
2023-03-14T03:35:34.808Z,98628.78
2023-03-14T03:38:03.638Z,98630.22
2023-03-14T03:40:31.337Z,98633.88
2023-03-14T03:42:58.736Z,98627.94
2023-03-14T03:45:26.141Z,98631.72
2023-03-14T03:47:53.563Z,98629.06
2023-03-14T03:50:21.007Z,98612.22
2023-03-14T03:52:48.404Z,98619.44
2023-03-14T03:55:17.436Z,98611.56
2023-03-14T03:57:44.835Z,98609.38
2023-03-14T04:00:13.818Z,98613.41
2023-03-14T04:02:41.376Z,98607.03
2023-03-14T04:05:09.955Z,98603.59
2023-03-14T04:07:37.468Z,98629.88
2023-03-14T04:10:05.639Z,98609.59
2023-03-14T04:12:34.406Z,98594.16
2023-03-14T04:15:01.796Z,98613.41
2023-03-14T04:17:29.179Z,98619.22
2023-03-14T04:19:56.568Z,98613.44
2023-03-14T04:22:24.063Z,98610.06
2023-03-14T04:24:51.485Z,98602.56
2023-03-14T04:27:18.912Z,98602.50
2023-03-14T04:29:47.679Z,98602.97
2023-03-14T04:32:15.116Z,98603.66
2023-03-14T04:34:43.266Z,98580.66
2023-03-14T04:37:10.658Z,98599.66
2023-03-14T04:39:38.320Z,98581.06
2023-03-14T04:42:06.764Z,98575.75
2023-03-14T04:44:34.167Z,98575.38
2023-03-14T04:47:03.002Z,98565.88
2023-03-14T04:49:30.400Z,98560.56
2023-03-14T04:51:57.801Z,98551.16
2023-03-14T04:54:25.238Z,98552.94
2023-03-14T04:56:52.658Z,98546.50
2023-03-14T04:59:20.092Z,98547.75
2023-03-14T05:01:49.068Z,98564.63
2023-03-14T05:04:17.859Z,98563.47
2023-03-14T05:06:45.379Z,98571.38
2023-03-14T05:09:12.796Z,98570.25
2023-03-14T05:11:40.198Z,98553.75
2023-03-14T05:14:07.581Z,98552.91
2023-03-14T05:16:35.153Z,98544.97
2023-03-14T05:19:03.039Z,98551.91
2023-03-14T05:21:31.752Z,98547.31
2023-03-14T05:23:59.162Z,98535.44
2023-03-14T05:26:26.645Z,98537.59
2023-03-14T05:28:54.098Z,98530.31
2023-03-14T05:31:21.653Z,98538.81
2023-03-14T05:33:49.056Z,98541.19
2023-03-14T05:36:16.482Z,98527.53
2023-03-14T05:38:45.232Z,98540.25
2023-03-14T05:41:12.626Z,98530.63
2023-03-14T05:43:40.300Z,98535.44
2023-03-14T05:46:08.100Z,98542.22
2023-03-14T05:48:35.622Z,98544.56
2023-03-14T05:51:03.150Z,98536.09
2023-03-14T05:53:31.262Z,98539.63
2023-03-14T05:56:00.039Z,98537.78
2023-03-14T05:58:27.434Z,98545.09
2023-03-14T06:00:54.860Z,98537.88
2023-03-14T06:03:22.353Z,98532.53
2023-03-14T06:05:51.709Z,98535.66
2023-03-14T06:08:19.393Z,98536.59
2023-03-14T06:10:46.809Z,98534.13
2023-03-14T06:13:16.328Z,98527.94
2023-03-14T06:15:44.408Z,98531.22
2023-03-14T06:18:11.864Z,98530.16
2023-03-14T06:20:40.305Z,98519.97
2023-03-14T06:23:08.159Z,98518.84
2023-03-14T06:25:36.259Z,98532.94
2023-03-14T06:28:03.829Z,98525.13
2023-03-14T06:30:32.712Z,98528.22
2023-03-14T06:33:00.302Z,98520.66
2023-03-14T06:35:27.784Z,98524.25
2023-03-14T06:37:55.210Z,98531.97
2023-03-14T06:40:22.661Z,98528.75
2023-03-14T06:42:50.243Z,98537.50
2023-03-14T06:45:17.881Z,98539.31
2023-03-14T06:47:46.704Z,98552.38
2023-03-14T06:50:14.134Z,98555.28
2023-03-14T06:52:42.197Z,98559.44
2023-03-14T06:55:10.013Z,98566.59
2023-03-14T06:57:37.455Z,98559.91
2023-03-14T07:00:05.766Z,98557.16
2023-03-14T07:02:42.743Z,98563.72
2023-03-14T07:05:12.311Z,98563.03
2023-03-14T07:07:39.793Z,98572.78
2023-03-14T07:10:09.707Z,98562.84
2023-03-14T07:12:37.348Z,98580.59
2023-03-14T07:17:52.758Z,98586.09
2023-03-14T07:20:21.626Z,98582.00
2023-03-14T07:22:50.226Z,98572.50
2023-03-14T07:25:18.487Z,98580.16
2023-03-14T07:27:46.343Z,98583.81
2023-03-14T07:30:14.282Z,98590.69
2023-03-14T07:32:41.853Z,98591.19
2023-03-14T07:35:10.264Z,98601.53
2023-03-14T07:37:38.997Z,98588.44
2023-03-14T07:40:08.084Z,98594.44
2023-03-14T07:42:35.594Z,98599.06
2023-03-14T07:45:04.061Z,98595.13
2023-03-14T07:47:31.495Z,98601.31
2023-03-14T07:49:58.919Z,98597.41
2023-03-14T07:52:26.358Z,98601.63
2023-03-14T07:54:55.132Z,98606.31
2023-03-14T07:57:22.750Z,98600.34
2023-03-14T07:59:50.255Z,98604.56
2023-03-14T08:02:19.048Z,98591.91
2023-03-14T08:04:46.469Z,98591.22
2023-03-14T08:07:13.877Z,98582.47
2023-03-14T08:09:41.349Z,98576.53
2023-03-14T08:12:10.350Z,98571.84
2023-03-14T08:14:37.744Z,98564.47
2023-03-14T08:17:08.956Z,98554.47
2023-03-14T08:19:36.440Z,98566.63
2023-03-14T08:22:04.202Z,98559.66
2023-03-14T08:24:31.920Z,98566.66
2023-03-14T08:26:59.368Z,98568.28
2023-03-14T08:29:28.126Z,98577.03
2023-03-14T08:31:55.896Z,98571.13
2023-03-14T08:34:23.437Z,98574.22
2023-03-14T08:36:51.175Z,98580.28
2023-03-14T08:39:18.612Z,98576.91
2023-03-14T08:41:46.042Z,98574.56
2023-03-14T08:44:14.028Z,98594.00
2023-03-14T08:46:42.891Z,98586.66
2023-03-14T08:49:10.299Z,98591.06
2023-03-14T08:51:37.760Z,98598.38
2023-03-14T08:54:05.163Z,98592.44
2023-03-14T08:56:32.606Z,98608.81
2023-03-14T08:59:00.003Z,98611.16
2023-03-14T09:01:27.545Z,98617.22
2023-03-14T09:03:56.349Z,98620.31
2023-03-14T09:06:24.180Z,98608.59
2023-03-14T09:08:51.556Z,98601.41
2023-03-14T09:11:19.645Z,98587.25
2023-03-14T09:13:47.123Z,98590.97
2023-03-14T09:16:14.585Z,98581.69
2023-03-14T09:18:42.112Z,98569.91
2023-03-14T09:21:10.984Z,98569.22
2023-03-14T09:23:38.457Z,98578.47
2023-03-14T09:26:06.182Z,98560.13
2023-03-14T09:28:33.954Z,98558.88
2023-03-14T09:31:08.916Z,98561.63
2023-03-14T09:33:36.472Z,98563.19
2023-03-14T09:36:04.994Z,98566.03
2023-03-14T09:38:34.434Z,98561.94
2023-03-14T09:41:03.185Z,98554.94
2023-03-14T09:43:33.605Z,98551.25
2023-03-14T09:46:03.866Z,98563.03
2023-03-14T09:48:34.486Z,98563.59
2023-03-14T09:51:06.863Z,98564.84
2023-03-14T09:53:41.366Z,98562.25
2023-03-14T09:56:14.984Z,98566.41
2023-03-14T09:58:45.165Z,98567.03
2023-03-14T10:01:17.081Z,98574.97
2023-03-14T10:03:47.336Z,98569.06
2023-03-14T10:06:16.190Z,98568.78
2023-03-14T10:08:46.770Z,98566.72
2023-03-14T10:11:16.417Z,98577.91
2023-03-14T10:14:03.899Z,98579.00
2023-03-14T10:16:33.472Z,98579.88
2023-03-14T10:19:06.882Z,98577.75
2023-03-14T10:21:39.407Z,98574.78
2023-03-14T10:24:20.698Z,98572.94
2023-03-14T10:26:51.872Z,98563.06
2023-03-14T10:29:19.325Z,98567.41
2023-03-14T10:31:53.504Z,98574.31
2023-03-14T10:34:27.547Z,98577.59
2023-03-14T10:36:56.442Z,98579.16
2023-03-14T10:39:40.154Z,98575.63
2023-03-14T10:42:16.663Z,98579.50
2023-03-14T10:44:44.608Z,98578.78
2023-03-14T10:47:20.092Z,98581.97
2023-03-14T10:49:47.679Z,98594.06
2023-03-14T10:52:20.756Z,98583.53
2023-03-14T10:54:51.468Z,98583.25
2023-03-14T10:57:21.296Z,98577.59
2023-03-14T10:59:49.546Z,98575.41
2023-03-14T11:02:36.260Z,98577.81
2023-03-14T11:05:21.606Z,98572.63
2023-03-14T11:07:49.195Z,98582.47
2023-03-14T11:10:24.933Z,98580.13
2023-03-14T11:13:03.474Z,98577.94
2023-03-14T11:15:35.162Z,98575.38
2023-03-14T11:18:24.958Z,98578.72
2023-03-14T11:20:57.233Z,98578.91
2023-03-14T11:23:28.709Z,98565.50
2023-03-14T11:26:02.390Z,98570.34
2023-03-14T11:28:34.658Z,98569.50
2023-03-14T11:31:10.050Z,98563.50
2023-03-14T11:33:39.802Z,98561.72
2023-03-14T11:36:10.319Z,98561.50
2023-03-14T11:38:42.897Z,98561.81
2023-03-14T11:41:17.883Z,98565.03
2023-03-14T11:43:49.974Z,98562.13
2023-03-14T11:46:23.650Z,98560.94
2023-03-14T11:49:01.243Z,98557.19
2023-03-14T11:51:32.135Z,98561.81
2023-03-14T11:54:05.702Z,98558.75
2023-03-14T11:56:39.429Z,98561.66
2023-03-14T11:59:16.667Z,98553.06
2023-03-14T12:01:55.797Z,98561.94
2023-03-14T12:04:44.246Z,98546.22
2023-03-14T12:07:21.599Z,98555.19
2023-03-14T12:09:50.779Z,98544.50
2023-03-14T12:12:23.364Z,98547.06
2023-03-14T12:14:57.277Z,98555.75
2023-03-14T12:17:27.388Z,98549.44
2023-03-14T12:20:08.603Z,98542.41
2023-03-14T12:22:38.017Z,98546.25
2023-03-14T12:25:18.779Z,98547.69
2023-03-14T12:28:05.403Z,98541.97
2023-03-14T12:30:34.793Z,98534.53
2023-03-14T12:33:35.528Z,98533.88
2023-03-14T12:36:05.747Z,98536.41
2023-03-14T12:38:54.288Z,98529.97
2023-03-14T12:41:26.087Z,98530.41
2023-03-14T12:43:54.872Z,98543.69
2023-03-14T12:46:25.567Z,98535.91
2023-03-14T12:48:57.731Z,98534.56
2023-03-14T12:51:35.877Z,98539.47
2023-03-14T12:54:29.605Z,98523.50
2023-03-14T12:57:17.623Z,98526.72
2023-03-14T12:59:53.015Z,98533.97
2023-03-14T13:02:25.859Z,98533.00
2023-03-14T13:05:01.704Z,98529.28
2023-03-14T13:07:37.639Z,98538.38
2023-03-14T13:10:20.160Z,98541.72
2023-03-14T13:12:52.008Z,98530.88
2023-03-14T13:15:25.710Z,98521.09
2023-03-14T13:17:55.561Z,98529.47
2023-03-14T13:20:30.194Z,98539.06
2023-03-14T13:22:57.640Z,98529.69
2023-03-14T13:25:25.154Z,98527.00
2023-03-14T13:27:56.751Z,98512.34
2023-03-14T13:30:28.524Z,98500.53
2023-03-14T13:32:57.582Z,98486.69
2023-03-14T13:35:28.146Z,98479.34
2023-03-14T13:38:10.679Z,98471.41
2023-03-14T13:40:39.135Z,98485.75
2023-03-14T13:43:15.242Z,98483.94
2023-03-14T13:45:51.022Z,98484.25
2023-03-14T13:48:18.985Z,98484.94
2023-03-14T13:50:55.647Z,98486.91
2023-03-14T13:53:23.876Z,98476.00
2023-03-14T13:55:52.035Z,98483.00
2023-03-14T13:58:25.578Z,98482.53
2023-03-14T14:01:04.669Z,98485.88
2023-03-14T14:03:34.124Z,98466.88
2023-03-14T14:06:01.696Z,98468.31
2023-03-14T14:08:29.355Z,98479.84
2023-03-14T14:11:03.856Z,98478.63
2023-03-14T14:13:35.062Z,98454.44
2023-03-14T14:16:05.755Z,98452.81
2023-03-14T14:18:35.684Z,98444.78
2023-03-14T14:21:04.758Z,98448.53
2023-03-14T14:23:32.833Z,98450.13
2023-03-14T14:26:01.512Z,98447.38
2023-03-14T14:28:32.099Z,98447.19
2023-03-14T14:31:20.773Z,98453.22
2023-03-14T14:33:55.922Z,98451.28
2023-03-14T14:36:25.820Z,98461.31
2023-03-14T14:39:00.668Z,98455.06
2023-03-14T14:41:34.640Z,98457.56
2023-03-14T14:44:02.987Z,98450.50
2023-03-14T14:46:33.885Z,98448.25
2023-03-14T14:49:06.436Z,98440.13
2023-03-14T14:51:40.267Z,98454.59
2023-03-14T14:54:18.797Z,98445.78
2023-03-14T14:56:52.264Z,98452.38
2023-03-14T14:59:24.419Z,98467.41
2023-03-14T15:01:58.086Z,98465.88
2023-03-14T15:04:26.104Z,98472.84
2023-03-14T15:06:54.451Z,98472.13
2023-03-14T15:09:22.027Z,98471.34
2023-03-14T15:11:49.988Z,98508.28
2023-03-14T15:14:17.765Z,98618.78
2023-03-14T15:16:45.326Z,98683.34
2023-03-14T15:19:24.692Z,98699.00
2023-03-14T15:21:53.404Z,98706.78
2023-03-14T15:24:21.131Z,98724.50
2023-03-14T15:26:48.698Z,98735.38
2023-03-14T15:29:16.180Z,98730.75
2023-03-14T15:31:44.788Z,98766.56
2023-03-14T15:34:13.730Z,98765.78
2023-03-14T15:36:41.321Z,98811.84
2023-03-14T15:39:09.164Z,98851.94
2023-03-14T15:41:36.623Z,98859.63
2023-03-14T15:44:04.257Z,98886.00
2023-03-14T15:46:31.837Z,98876.63
2023-03-14T15:48:59.224Z,98903.88
2023-03-14T15:51:28.214Z,98911.44
2023-03-14T15:53:55.948Z,98935.19
2023-03-14T15:56:25.891Z,98948.84
2023-03-14T15:58:53.571Z,98960.75
2023-03-14T16:01:24.453Z,98990.56
2023-03-14T16:03:53.681Z,99013.22
2023-03-14T16:06:21.450Z,99029.31
2023-03-14T16:08:50.190Z,99062.03
2023-03-14T16:11:19.458Z,99074.91
2023-03-14T16:13:48.387Z,99102.28
2023-03-14T16:16:16.333Z,99122.91
2023-03-14T16:18:43.805Z,99139.09
2023-03-14T16:21:13.905Z,99159.13
2023-03-14T16:23:41.418Z,99179.16
2023-03-14T16:26:11.788Z,99181.03
2023-03-14T16:28:39.567Z,99181.78
2023-03-14T16:31:09.095Z,99188.28
2023-03-14T16:33:38.178Z,99187.78
2023-03-14T16:36:09.127Z,99194.44
2023-03-14T16:38:37.602Z,99196.66
2023-03-14T16:41:06.868Z,99201.41
2023-03-14T16:43:37.167Z,99213.34
2023-03-14T16:46:06.654Z,99215.09
2023-03-14T16:48:34.358Z,99231.16
2023-03-14T16:51:01.768Z,99240.53
2023-03-14T16:53:30.255Z,99261.25
2023-03-14T16:55:59.078Z,99280.94
2023-03-14T16:58:27.015Z,99306.34
2023-03-14T17:00:57.866Z,99320.56
2023-03-14T17:03:27.737Z,99328.53
2023-03-14T17:05:55.323Z,99345.13
2023-03-14T17:08:22.989Z,99342.28
2023-03-14T17:10:50.458Z,99360.69
2023-03-14T17:13:18.870Z,99367.66
2023-03-14T17:15:47.682Z,99380.19
2023-03-14T17:18:16.451Z,99393.25
2023-03-14T17:20:43.846Z,99412.91
2023-03-14T17:23:11.225Z,99431.00
2023-03-14T17:25:38.658Z,99436.34
2023-03-14T17:28:06.314Z,99440.31
2023-03-14T17:30:34.226Z,99447.66
2023-03-14T17:33:01.683Z,99466.09
2023-03-14T17:35:30.601Z,99452.53
2023-03-14T17:37:58.630Z,99470.47
2023-03-14T17:40:26.198Z,99488.66
2023-03-14T17:42:53.806Z,99486.72
2023-03-14T17:45:27.833Z,99482.59
2023-03-14T17:47:58.137Z,99498.47
2023-03-14T17:51:11.893Z,99508.47
2023-03-14T17:53:48.649Z,99528.06
2023-03-14T17:56:50.101Z,99529.44
2023-03-14T17:59:45.679Z,99543.03
2023-03-14T18:05:22.820Z,99575.09
2023-03-14T18:07:55.886Z,99579.28
2023-03-14T18:10:30.201Z,99577.31
2023-03-14T18:12:59.199Z,99588.81
2023-03-14T18:15:39.803Z,99593.25
2023-03-14T18:18:33.137Z,99600.22
2023-03-14T18:24:29.116Z,99615.56
2023-03-14T18:30:03.714Z,99622.88
2023-03-14T18:33:06.842Z,99638.38
2023-03-14T18:36:04.463Z,99639.91
2023-03-14T18:38:52.670Z,99636.63
2023-03-14T18:42:08.458Z,99645.34
2023-03-14T18:45:02.455Z,99645.84
2023-03-14T18:48:00.432Z,99658.28
2023-03-14T18:50:49.771Z,99664.16
2023-03-14T18:54:10.071Z,99688.13
2023-03-14T18:57:22.539Z,99688.50
2023-03-14T19:03:57.395Z,99698.16
2023-03-14T19:07:51.713Z,99706.66
2023-03-14T19:10:28.283Z,99727.00
2023-03-14T19:13:16.690Z,99731.09
2023-03-14T19:16:10.202Z,99733.09
2023-03-14T19:19:07.983Z,99736.72
2023-03-14T19:22:02.485Z,99751.25
2023-03-14T19:24:43.409Z,99750.66
2023-03-14T19:27:35.126Z,99758.72
2023-03-14T19:30:31.619Z,99768.25
2023-03-14T19:33:28.815Z,99771.97
2023-03-14T19:36:05.175Z,99786.09
2023-03-14T19:38:39.974Z,99779.75
2023-03-14T19:41:38.716Z,99790.06
2023-03-14T19:44:34.632Z,99805.28
2023-03-14T19:47:28.442Z,99804.78
2023-03-14T19:50:23.586Z,99819.44
2023-03-14T19:53:10.429Z,99823.22
2023-03-14T19:55:53.383Z,99840.28
2023-03-14T19:59:04.322Z,99851.84
2023-03-14T20:01:59.030Z,99855.84
2023-03-14T20:05:12.071Z,99876.81
2023-03-14T20:07:57.702Z,99882.06
2023-03-14T20:10:33.326Z,99885.28
2023-03-14T20:13:22.677Z,99894.13
2023-03-14T20:16:07.370Z,99897.72
2023-03-14T20:19:00.110Z,99905.47
2023-03-14T20:21:42.242Z,99911.78
2023-03-14T20:24:24.032Z,99920.44
2023-03-14T20:27:12.625Z,99926.97
2023-03-14T20:29:53.329Z,99930.59
2023-03-14T20:32:36.170Z,99938.91
2023-03-14T20:35:10.635Z,99951.19
2023-03-14T20:38:00.722Z,99960.06
2023-03-14T20:40:59.476Z,99961.69
2023-03-14T20:43:34.579Z,99969.53
2023-03-14T20:46:05.193Z,99982.28
2023-03-14T20:48:47.480Z,99983.25
2023-03-14T20:51:27.052Z,99982.97
2023-03-14T20:54:10.659Z,99995.50
2023-03-14T20:56:44.382Z,100005.91
2023-03-14T20:59:16.430Z,100000.16
2023-03-14T21:01:55.219Z,100016.81
2023-03-14T21:04:39.731Z,100015.69
2023-03-14T21:07:28.157Z,100004.59
2023-03-14T21:10:20.668Z,100016.19
2023-03-14T21:13:12.811Z,100029.06
2023-03-14T21:15:52.324Z,100029.25
2023-03-14T21:18:45.761Z,100038.03
2023-03-14T21:21:39.992Z,100035.16
2023-03-14T21:24:18.333Z,100048.81
2023-03-14T21:27:09.000Z,100053.78
2023-03-14T21:30:09.837Z,100055.63
2023-03-14T21:32:52.907Z,100062.38
2023-03-14T21:35:36.836Z,100061.41
2023-03-14T21:38:40.673Z,100070.16
2023-03-14T21:41:21.895Z,100072.91
2023-03-14T21:44:09.376Z,100077.94
2023-03-14T21:46:46.195Z,100082.50
2023-03-14T21:49:38.822Z,100082.56
2023-03-14T21:52:26.805Z,100099.34
2023-03-14T21:55:17.490Z,100093.16
2023-03-14T21:57:55.868Z,100097.03
2023-03-14T22:00:31.465Z,100099.19
2023-03-14T22:03:12.733Z,100103.00
2023-03-14T22:05:45.273Z,100109.00
2023-03-14T22:08:15.885Z,100110.72
2023-03-14T22:11:01.749Z,100106.28
2023-03-14T22:13:34.533Z,100110.97
2023-03-14T22:16:11.278Z,100118.09
2023-03-14T22:18:45.147Z,100125.63
2023-03-14T22:21:15.847Z,100119.63
2023-03-14T22:23:53.977Z,100129.75
2023-03-14T22:27:00.314Z,100130.97
2023-03-14T22:29:47.261Z,100132.31
2023-03-14T22:32:19.496Z,100150.72
2023-03-14T22:34:58.425Z,100157.78
2023-03-14T22:38:07.576Z,100159.56
2023-03-14T22:40:43.990Z,100160.94
2023-03-14T22:43:29.329Z,100171.34
2023-03-14T22:46:10.609Z,100178.34
2023-03-14T22:48:49.416Z,100179.34
2023-03-14T22:51:20.967Z,100191.94
2023-03-14T22:54:01.592Z,100184.38
2023-03-14T22:56:37.279Z,100179.72
2023-03-14T22:59:04.729Z,100192.25
2023-03-14T23:01:32.146Z,100189.44
2023-03-14T23:04:01.409Z,100199.34
2023-03-14T23:06:28.990Z,100196.84
2023-03-14T23:08:56.450Z,100200.31
2023-03-14T23:11:26.246Z,100198.31
2023-03-14T23:13:53.738Z,100200.06
2023-03-14T23:16:25.192Z,100206.25
2023-03-14T23:18:57.922Z,100208.13
2023-03-14T23:21:26.796Z,100211.88
2023-03-14T23:23:54.501Z,100209.84
2023-03-14T23:26:24.174Z,100217.66
2023-03-14T23:28:54.364Z,100223.31
2023-03-14T23:31:22.521Z,100224.22
2023-03-14T23:33:51.371Z,100227.41
2023-03-14T23:36:19.506Z,100227.53
2023-03-14T23:38:48.291Z,100216.84
2023-03-14T23:41:16.118Z,100215.63
2023-03-14T23:43:44.807Z,100222.94
2023-03-14T23:46:13.285Z,100228.44
2023-03-14T23:48:40.777Z,100234.75
2023-03-14T23:51:11.263Z,100234.06
2023-03-14T23:53:38.884Z,100239.63
2023-03-14T23:56:08.750Z,100247.06
2023-03-14T23:58:36.570Z,100249.28
